sensor_id;sensor_type;location;lat;lon;timestamp;temperature;humidity
18753;DHT22;9505;50.882;5.350;2023-06-24T00:01:26;18.60;99.90
18753;DHT22;9505;50.882;5.350;2023-06-24T00:03:52;18.60;99.90
18753;DHT22;9505;50.882;5.350;2023-06-24T00:06:19;18.60;99.90
18753;DHT22;9505;50.882;5.350;2023-06-24T00:08:46;18.60;99.90
18753;DHT22;9505;50.882;5.350;2023-06-24T00:11:12;18.60;99.90
18753;DHT22;9505;50.882;5.350;2023-06-24T00:13:39;18.50;99.90
18753;DHT22;9505;50.882;5.350;2023-06-24T00:16:05;18.50;99.90
18753;DHT22;9505;50.882;5.350;2023-06-24T00:18:32;18.40;99.90
18753;DHT22;9505;50.882;5.350;2023-06-24T00:20:58;18.40;99.90
18753;DHT22;9505;50.882;5.350;2023-06-24T00:23:24;18.30;99.90
18753;DHT22;9505;50.882;5.350;2023-06-24T00:25:54;18.30;99.90
18753;DHT22;9505;50.882;5.350;2023-06-24T00:28:21;18.20;99.90
18753;DHT22;9505;50.882;5.350;2023-06-24T00:30:47;18.20;99.90
18753;DHT22;9505;50.882;5.350;2023-06-24T00:33:13;18.10;99.90
18753;DHT22;9505;50.882;5.350;2023-06-24T00:35:40;18.10;99.90
18753;DHT22;9505;50.882;5.350;2023-06-24T00:38:06;18.10;99.90
18753;DHT22;9505;50.882;5.350;2023-06-24T00:40:32;18.00;99.90
18753;DHT22;9505;50.882;5.350;2023-06-24T00:42:58;17.90;99.90
18753;DHT22;9505;50.882;5.350;2023-06-24T00:45:24;17.90;99.90
18753;DHT22;9505;50.882;5.350;2023-06-24T00:47:50;17.90;99.90
18753;DHT22;9505;50.882;5.350;2023-06-24T00:50:17;17.80;99.90
18753;DHT22;9505;50.882;5.350;2023-06-24T00:52:43;17.80;99.90
18753;DHT22;9505;50.882;5.350;2023-06-24T00:55:12;17.80;99.90
18753;DHT22;9505;50.882;5.350;2023-06-24T00:57:41;17.80;99.90
18753;DHT22;9505;50.882;5.350;2023-06-24T01:00:07;17.70;99.90
18753;DHT22;9505;50.882;5.350;2023-06-24T01:02:41;17.70;99.90
18753;DHT22;9505;50.882;5.350;2023-06-24T01:05:10;17.70;99.90
18753;DHT22;9505;50.882;5.350;2023-06-24T01:07:39;17.70;99.90
18753;DHT22;9505;50.882;5.350;2023-06-24T01:10:06;17.70;99.90
18753;DHT22;9505;50.882;5.350;2023-06-24T01:12:40;17.60;99.90
18753;DHT22;9505;50.882;5.350;2023-06-24T01:15:09;17.60;99.90
18753;DHT22;9505;50.882;5.350;2023-06-24T01:17:44;17.60;99.90
18753;DHT22;9505;50.882;5.350;2023-06-24T01:30:59;17.50;99.90
18753;DHT22;9505;50.882;5.350;2023-06-24T01:34:02;17.50;99.90
18753;DHT22;9505;50.882;5.350;2023-06-24T01:36:33;17.40;99.90
18753;DHT22;9505;50.882;5.350;2023-06-24T01:39:04;17.30;99.90
18753;DHT22;9505;50.882;5.350;2023-06-24T01:41:36;17.30;99.90
18753;DHT22;9505;50.882;5.350;2023-06-24T01:44:04;17.30;99.90
18753;DHT22;9505;50.882;5.350;2023-06-24T01:46:31;17.20;99.90
18753;DHT22;9505;50.882;5.350;2023-06-24T01:49:00;17.20;99.90
18753;DHT22;9505;50.882;5.350;2023-06-24T01:51:29;17.10;99.90
18753;DHT22;9505;50.882;5.350;2023-06-24T01:54:01;17.10;99.90
18753;DHT22;9505;50.882;5.350;2023-06-24T01:56:29;17.10;99.90
18753;DHT22;9505;50.882;5.350;2023-06-24T01:58:57;17.00;99.90
18753;DHT22;9505;50.882;5.350;2023-06-24T02:01:24;17.00;99.90
18753;DHT22;9505;50.882;5.350;2023-06-24T02:03:50;17.00;99.90
18753;DHT22;9505;50.882;5.350;2023-06-24T02:06:19;16.90;99.90
18753;DHT22;9505;50.882;5.350;2023-06-24T02:08:48;16.90;99.90
18753;DHT22;9505;50.882;5.350;2023-06-24T02:11:15;16.80;99.90
18753;DHT22;9505;50.882;5.350;2023-06-24T02:13:42;16.80;99.90
18753;DHT22;9505;50.882;5.350;2023-06-24T02:16:10;16.70;99.90
18753;DHT22;9505;50.882;5.350;2023-06-24T02:18:38;16.60;99.90
18753;DHT22;9505;50.882;5.350;2023-06-24T02:21:08;16.60;99.90
18753;DHT22;9505;50.882;5.350;2023-06-24T02:23:35;16.60;99.90
18753;DHT22;9505;50.882;5.350;2023-06-24T02:26:03;16.50;99.90
18753;DHT22;9505;50.882;5.350;2023-06-24T02:28:32;16.40;99.90
18753;DHT22;9505;50.882;5.350;2023-06-24T02:30:59;16.40;99.90
18753;DHT22;9505;50.882;5.350;2023-06-24T02:33:25;16.30;99.90
18753;DHT22;9505;50.882;5.350;2023-06-24T02:35:52;16.30;99.90
18753;DHT22;9505;50.882;5.350;2023-06-24T02:38:17;16.30;99.90
18753;DHT22;9505;50.882;5.350;2023-06-24T02:40:45;16.20;99.90
18753;DHT22;9505;50.882;5.350;2023-06-24T02:43:11;16.20;99.90
18753;DHT22;9505;50.882;5.350;2023-06-24T02:45:37;16.20;99.90
18753;DHT22;9505;50.882;5.350;2023-06-24T02:48:04;16.10;99.90
18753;DHT22;9505;50.882;5.350;2023-06-24T02:50:30;16.10;99.90
18753;DHT22;9505;50.882;5.350;2023-06-24T02:52:57;16.10;99.90
18753;DHT22;9505;50.882;5.350;2023-06-24T02:55:23;16.10;99.90
18753;DHT22;9505;50.882;5.350;2023-06-24T02:57:49;16.00;99.90
18753;DHT22;9505;50.882;5.350;2023-06-24T03:00:16;16.00;99.90
18753;DHT22;9505;50.882;5.350;2023-06-24T03:02:43;15.90;99.90
18753;DHT22;9505;50.882;5.350;2023-06-24T03:05:10;15.90;99.90
18753;DHT22;9505;50.882;5.350;2023-06-24T03:07:37;15.90;99.90
18753;DHT22;9505;50.882;5.350;2023-06-24T03:10:04;15.90;99.90
18753;DHT22;9505;50.882;5.350;2023-06-24T03:12:31;15.80;99.90
18753;DHT22;9505;50.882;5.350;2023-06-24T03:14:57;15.80;99.90
18753;DHT22;9505;50.882;5.350;2023-06-24T03:17:23;15.80;99.90
18753;DHT22;9505;50.882;5.350;2023-06-24T03:19:50;15.80;99.90
18753;DHT22;9505;50.882;5.350;2023-06-24T03:22:16;15.70;99.90
18753;DHT22;9505;50.882;5.350;2023-06-24T03:24:42;15.70;99.90
18753;DHT22;9505;50.882;5.350;2023-06-24T03:27:08;15.70;99.90
18753;DHT22;9505;50.882;5.350;2023-06-24T03:29:34;15.70;99.90
18753;DHT22;9505;50.882;5.350;2023-06-24T03:31:59;15.70;99.90
18753;DHT22;9505;50.882;5.350;2023-06-24T03:34:25;15.60;99.90
18753;DHT22;9505;50.882;5.350;2023-06-24T03:36:55;15.60;99.90
18753;DHT22;9505;50.882;5.350;2023-06-24T03:39:22;15.60;99.90
18753;DHT22;9505;50.882;5.350;2023-06-24T03:41:47;15.60;99.90
18753;DHT22;9505;50.882;5.350;2023-06-24T03:44:13;15.60;99.90
18753;DHT22;9505;50.882;5.350;2023-06-24T03:46:39;15.60;99.90
18753;DHT22;9505;50.882;5.350;2023-06-24T03:49:04;15.60;99.90
18753;DHT22;9505;50.882;5.350;2023-06-24T03:51:30;15.60;99.90
18753;DHT22;9505;50.882;5.350;2023-06-24T03:53:56;15.60;99.90
18753;DHT22;9505;50.882;5.350;2023-06-24T03:56:22;15.60;99.90
18753;DHT22;9505;50.882;5.350;2023-06-24T03:58:48;15.60;99.90
18753;DHT22;9505;50.882;5.350;2023-06-24T04:01:13;15.70;99.90
18753;DHT22;9505;50.882;5.350;2023-06-24T04:03:39;15.60;99.90
18753;DHT22;9505;50.882;5.350;2023-06-24T04:06:04;15.70;99.90
18753;DHT22;9505;50.882;5.350;2023-06-24T04:08:30;15.70;99.90
18753;DHT22;9505;50.882;5.350;2023-06-24T04:10:57;15.70;99.90
18753;DHT22;9505;50.882;5.350;2023-06-24T04:13:25;15.70;99.90
18753;DHT22;9505;50.882;5.350;2023-06-24T04:15:51;15.80;99.90
18753;DHT22;9505;50.882;5.350;2023-06-24T04:18:17;15.80;99.90
18753;DHT22;9505;50.882;5.350;2023-06-24T04:20:43;15.80;99.90
18753;DHT22;9505;50.882;5.350;2023-06-24T04:23:09;15.80;99.90
18753;DHT22;9505;50.882;5.350;2023-06-24T04:25:36;15.80;99.90
18753;DHT22;9505;50.882;5.350;2023-06-24T04:28:03;15.90;99.90
18753;DHT22;9505;50.882;5.350;2023-06-24T04:30:30;16.00;99.90
18753;DHT22;9505;50.882;5.350;2023-06-24T04:32:55;16.00;99.90
18753;DHT22;9505;50.882;5.350;2023-06-24T04:35:21;16.00;99.90
18753;DHT22;9505;50.882;5.350;2023-06-24T04:37:47;16.10;99.90
18753;DHT22;9505;50.882;5.350;2023-06-24T04:40:14;16.10;99.90
18753;DHT22;9505;50.882;5.350;2023-06-24T04:42:40;16.20;99.90
18753;DHT22;9505;50.882;5.350;2023-06-24T04:45:06;16.20;99.90
18753;DHT22;9505;50.882;5.350;2023-06-24T04:47:32;16.30;99.90
18753;DHT22;9505;50.882;5.350;2023-06-24T04:49:57;16.40;99.90
18753;DHT22;9505;50.882;5.350;2023-06-24T04:52:23;16.40;99.90
18753;DHT22;9505;50.882;5.350;2023-06-24T04:54:49;16.40;99.90
18753;DHT22;9505;50.882;5.350;2023-06-24T04:57:29;16.50;99.90
18753;DHT22;9505;50.882;5.350;2023-06-24T04:59:56;16.60;99.90
18753;DHT22;9505;50.882;5.350;2023-06-24T05:02:22;16.60;99.90
18753;DHT22;9505;50.882;5.350;2023-06-24T05:04:48;16.70;99.90
18753;DHT22;9505;50.882;5.350;2023-06-24T05:07:13;16.80;99.90
18753;DHT22;9505;50.882;5.350;2023-06-24T05:09:39;16.80;99.90
18753;DHT22;9505;50.882;5.350;2023-06-24T05:12:05;16.90;99.90
18753;DHT22;9505;50.882;5.350;2023-06-24T05:14:34;17.00;99.90
18753;DHT22;9505;50.882;5.350;2023-06-24T05:16:59;17.10;99.90
18753;DHT22;9505;50.882;5.350;2023-06-24T05:19:25;17.20;99.90
18753;DHT22;9505;50.882;5.350;2023-06-24T05:21:51;17.40;99.90
18753;DHT22;9505;50.882;5.350;2023-06-24T05:24:16;17.50;99.90
18753;DHT22;9505;50.882;5.350;2023-06-24T05:26:42;17.60;99.90
18753;DHT22;9505;50.882;5.350;2023-06-24T05:29:08;17.80;99.90
18753;DHT22;9505;50.882;5.350;2023-06-24T05:31:33;18.00;99.90
18753;DHT22;9505;50.882;5.350;2023-06-24T05:33:59;18.10;99.90
18753;DHT22;9505;50.882;5.350;2023-06-24T05:36:25;18.20;99.90
18753;DHT22;9505;50.882;5.350;2023-06-24T05:38:51;18.60;99.90
18753;DHT22;9505;50.882;5.350;2023-06-24T05:41:16;20.80;99.90
18753;DHT22;9505;50.882;5.350;2023-06-24T05:43:43;24.20;99.90
18753;DHT22;9505;50.882;5.350;2023-06-24T05:46:09;26.70;99.90
18753;DHT22;9505;50.882;5.350;2023-06-24T05:48:35;28.50;99.90
18753;DHT22;9505;50.882;5.350;2023-06-24T05:51:00;29.80;99.90
18753;DHT22;9505;50.882;5.350;2023-06-24T05:53:26;30.70;99.90
18753;DHT22;9505;50.882;5.350;2023-06-24T05:55:51;31.40;97.90
18753;DHT22;9505;50.882;5.350;2023-06-24T05:58:17;31.40;97.00
18753;DHT22;9505;50.882;5.350;2023-06-24T06:00:43;31.70;96.40
18753;DHT22;9505;50.882;5.350;2023-06-24T06:03:09;31.90;95.20
18753;DHT22;9505;50.882;5.350;2023-06-24T06:05:34;32.50;95.60
18753;DHT22;9505;50.882;5.350;2023-06-24T06:08:00;32.80;92.80
18753;DHT22;9505;50.882;5.350;2023-06-24T06:10:26;33.10;92.50
18753;DHT22;9505;50.882;5.350;2023-06-24T06:12:51;33.20;90.70
18753;DHT22;9505;50.882;5.350;2023-06-24T06:15:19;33.00;90.30
18753;DHT22;9505;50.882;5.350;2023-06-24T06:17:45;33.10;90.70
18753;DHT22;9505;50.882;5.350;2023-06-24T06:20:11;33.00;87.60
18753;DHT22;9505;50.882;5.350;2023-06-24T06:22:37;32.60;88.00
18753;DHT22;9505;50.882;5.350;2023-06-24T06:25:06;31.30;90.00
18753;DHT22;9505;50.882;5.350;2023-06-24T06:27:33;31.10;90.40
18753;DHT22;9505;50.882;5.350;2023-06-24T06:29:59;32.00;89.80
18753;DHT22;9505;50.882;5.350;2023-06-24T06:32:25;33.50;85.90
18753;DHT22;9505;50.882;5.350;2023-06-24T06:34:50;34.40;83.20
18753;DHT22;9505;50.882;5.350;2023-06-24T06:37:16;34.30;80.00
18753;DHT22;9505;50.882;5.350;2023-06-24T06:39:41;33.70;78.60
18753;DHT22;9505;50.882;5.350;2023-06-24T06:42:07;33.50;79.60
18753;DHT22;9505;50.882;5.350;2023-06-24T06:44:33;33.20;80.90
18753;DHT22;9505;50.882;5.350;2023-06-24T06:46:58;33.20;78.00
18753;DHT22;9505;50.882;5.350;2023-06-24T06:49:24;32.20;80.30
18753;DHT22;9505;50.882;5.350;2023-06-24T06:51:51;31.90;81.40
18753;DHT22;9505;50.882;5.350;2023-06-24T06:54:17;32.80;80.40
18753;DHT22;9505;50.882;5.350;2023-06-24T06:56:42;34.10;78.70
18753;DHT22;9505;50.882;5.350;2023-06-24T06:59:08;35.30;75.80
18753;DHT22;9505;50.882;5.350;2023-06-24T07:01:34;35.50;75.00
18753;DHT22;9505;50.882;5.350;2023-06-24T07:03:59;35.20;73.60
18753;DHT22;9505;50.882;5.350;2023-06-24T07:06:25;33.90;74.10
18753;DHT22;9505;50.882;5.350;2023-06-24T07:08:50;34.30;74.10
18753;DHT22;9505;50.882;5.350;2023-06-24T07:11:17;35.00;73.70
18753;DHT22;9505;50.882;5.350;2023-06-24T07:13:43;35.90;71.30
18753;DHT22;9505;50.882;5.350;2023-06-24T07:16:10;36.20;70.20
18753;DHT22;9505;50.882;5.350;2023-06-24T07:18:35;34.60;70.70
18753;DHT22;9505;50.882;5.350;2023-06-24T07:21:01;34.60;71.40
18753;DHT22;9505;50.882;5.350;2023-06-24T07:23:27;35.40;70.50
18753;DHT22;9505;50.882;5.350;2023-06-24T07:25:53;35.20;69.30
18753;DHT22;9505;50.882;5.350;2023-06-24T07:28:18;34.60;71.50
18753;DHT22;9505;50.882;5.350;2023-06-24T07:30:44;34.50;72.00
18753;DHT22;9505;50.882;5.350;2023-06-24T07:33:10;35.40;71.00
18753;DHT22;9505;50.882;5.350;2023-06-24T07:35:36;35.80;67.60
18753;DHT22;9505;50.882;5.350;2023-06-24T07:38:01;35.20;68.60
18753;DHT22;9505;50.882;5.350;2023-06-24T07:40:27;35.10;68.90
18753;DHT22;9505;50.882;5.350;2023-06-24T07:42:53;35.70;67.80
18753;DHT22;9505;50.882;5.350;2023-06-24T07:45:19;36.40;67.30
18753;DHT22;9505;50.882;5.350;2023-06-24T07:47:45;36.60;64.80
18753;DHT22;9505;50.882;5.350;2023-06-24T07:50:10;36.20;65.30
18753;DHT22;9505;50.882;5.350;2023-06-24T07:52:37;35.40;66.50
18753;DHT22;9505;50.882;5.350;2023-06-24T07:55:03;34.90;67.90
18753;DHT22;9505;50.882;5.350;2023-06-24T07:57:29;34.80;68.60
18753;DHT22;9505;50.882;5.350;2023-06-24T07:59:55;33.60;69.50
18753;DHT22;9505;50.882;5.350;2023-06-24T08:02:21;33.70;69.20
18753;DHT22;9505;50.882;5.350;2023-06-24T08:04:47;34.10;69.90
18753;DHT22;9505;50.882;5.350;2023-06-24T08:07:12;32.50;71.30
18753;DHT22;9505;50.882;5.350;2023-06-24T08:09:38;32.00;72.90
18753;DHT22;9505;50.882;5.350;2023-06-24T08:12:04;31.10;76.30
18753;DHT22;9505;50.882;5.350;2023-06-24T08:14:30;29.80;75.90
18753;DHT22;9505;50.882;5.350;2023-06-24T08:16:55;28.70;79.20
18753;DHT22;9505;50.882;5.350;2023-06-24T08:19:21;28.40;79.20
18753;DHT22;9505;50.882;5.350;2023-06-24T08:21:47;27.60;81.60
18753;DHT22;9505;50.882;5.350;2023-06-24T08:24:12;27.50;84.80
18753;DHT22;9505;50.882;5.350;2023-06-24T08:26:38;27.80;85.00
18753;DHT22;9505;50.882;5.350;2023-06-24T08:29:03;27.80;84.00
18753;DHT22;9505;50.882;5.350;2023-06-24T08:31:29;27.50;84.50
18753;DHT22;9505;50.882;5.350;2023-06-24T08:33:56;27.30;85.80
18753;DHT22;9505;50.882;5.350;2023-06-24T08:36:27;27.10;81.80
18753;DHT22;9505;50.882;5.350;2023-06-24T08:38:53;26.90;84.40
18753;DHT22;9505;50.882;5.350;2023-06-24T08:41:18;26.90;88.80
18753;DHT22;9505;50.882;5.350;2023-06-24T08:43:44;27.10;87.80
18753;DHT22;9505;50.882;5.350;2023-06-24T08:46:10;27.30;84.00
18753;DHT22;9505;50.882;5.350;2023-06-24T08:48:39;27.50;87.40
18753;DHT22;9505;50.882;5.350;2023-06-24T08:51:11;27.60;85.30
18753;DHT22;9505;50.882;5.350;2023-06-24T08:53:38;27.50;89.70
18753;DHT22;9505;50.882;5.350;2023-06-24T08:56:07;27.60;83.80
18753;DHT22;9505;50.882;5.350;2023-06-24T08:58:33;28.00;83.50
18753;DHT22;9505;50.882;5.350;2023-06-24T09:01:00;28.10;83.40
18753;DHT22;9505;50.882;5.350;2023-06-24T09:03:26;27.60;82.50
18753;DHT22;9505;50.882;5.350;2023-06-24T09:05:51;27.30;84.10
18753;DHT22;9505;50.882;5.350;2023-06-24T09:08:17;27.10;84.10
18753;DHT22;9505;50.882;5.350;2023-06-24T09:10:43;27.20;84.80
18753;DHT22;9505;50.882;5.350;2023-06-24T09:13:09;27.20;84.70
18753;DHT22;9505;50.882;5.350;2023-06-24T09:15:38;27.20;86.50
18753;DHT22;9505;50.882;5.350;2023-06-24T09:18:04;27.50;83.60
18753;DHT22;9505;50.882;5.350;2023-06-24T09:20:31;27.60;85.20
18753;DHT22;9505;50.882;5.350;2023-06-24T09:23:02;28.10;86.00
18753;DHT22;9505;50.882;5.350;2023-06-24T09:25:29;28.30;83.30
18753;DHT22;9505;50.882;5.350;2023-06-24T09:27:55;28.20;82.40
18753;DHT22;9505;50.882;5.350;2023-06-24T09:30:23;28.10;88.60
18753;DHT22;9505;50.882;5.350;2023-06-24T09:32:50;28.20;83.00
18753;DHT22;9505;50.882;5.350;2023-06-24T09:35:23;27.90;83.60
18753;DHT22;9505;50.882;5.350;2023-06-24T09:37:54;27.90;83.30
18753;DHT22;9505;50.882;5.350;2023-06-24T09:40:23;28.10;84.40
18753;DHT22;9505;50.882;5.350;2023-06-24T09:42:53;28.10;81.80
18753;DHT22;9505;50.882;5.350;2023-06-24T09:45:24;28.00;82.30
18753;DHT22;9505;50.882;5.350;2023-06-24T09:47:50;28.00;80.20
18753;DHT22;9505;50.882;5.350;2023-06-24T09:50:16;28.10;82.50
18753;DHT22;9505;50.882;5.350;2023-06-24T09:52:43;28.00;80.20
18753;DHT22;9505;50.882;5.350;2023-06-24T09:55:10;28.10;78.40
18753;DHT22;9505;50.882;5.350;2023-06-24T09:57:39;28.00;79.60
18753;DHT22;9505;50.882;5.350;2023-06-24T10:00:06;28.30;77.70
18753;DHT22;9505;50.882;5.350;2023-06-24T10:02:32;28.30;81.40
18753;DHT22;9505;50.882;5.350;2023-06-24T10:04:59;28.40;86.00
18753;DHT22;9505;50.882;5.350;2023-06-24T10:07:26;28.30;83.00
18753;DHT22;9505;50.882;5.350;2023-06-24T10:09:53;28.40;84.30
18753;DHT22;9505;50.882;5.350;2023-06-24T10:12:19;28.50;81.60
18753;DHT22;9505;50.882;5.350;2023-06-24T10:14:45;28.90;81.80
18753;DHT22;9505;50.882;5.350;2023-06-24T10:17:11;28.70;77.50
18753;DHT22;9505;50.882;5.350;2023-06-24T10:19:38;28.40;79.30
18753;DHT22;9505;50.882;5.350;2023-06-24T10:22:10;28.60;84.00
18753;DHT22;9505;50.882;5.350;2023-06-24T10:24:38;28.60;79.20
18753;DHT22;9505;50.882;5.350;2023-06-24T10:27:15;28.60;80.10
18753;DHT22;9505;50.882;5.350;2023-06-24T10:29:46;28.60;79.90
18753;DHT22;9505;50.882;5.350;2023-06-24T10:32:12;28.60;82.80
18753;DHT22;9505;50.882;5.350;2023-06-24T10:42:42;29.10;79.50
18753;DHT22;9505;50.882;5.350;2023-06-24T10:47:43;29.40;79.40
18753;DHT22;9505;50.882;5.350;2023-06-24T10:50:18;29.10;77.20
18753;DHT22;9505;50.882;5.350;2023-06-24T10:52:48;29.10;77.00
18753;DHT22;9505;50.882;5.350;2023-06-24T10:55:16;29.30;78.30
18753;DHT22;9505;50.882;5.350;2023-06-24T10:57:42;29.30;79.70
18753;DHT22;9505;50.882;5.350;2023-06-24T11:00:08;29.50;76.90
18753;DHT22;9505;50.882;5.350;2023-06-24T11:02:33;29.40;79.00
18753;DHT22;9505;50.882;5.350;2023-06-24T11:05:00;29.40;73.60
18753;DHT22;9505;50.882;5.350;2023-06-24T11:07:28;29.30;74.70
18753;DHT22;9505;50.882;5.350;2023-06-24T11:10:02;29.50;79.70
18753;DHT22;9505;50.882;5.350;2023-06-24T11:12:36;29.60;78.30
18753;DHT22;9505;50.882;5.350;2023-06-24T11:15:05;29.20;76.40
18753;DHT22;9505;50.882;5.350;2023-06-24T11:17:32;29.40;74.10
18753;DHT22;9505;50.882;5.350;2023-06-24T11:19:58;29.70;79.60
18753;DHT22;9505;50.882;5.350;2023-06-24T11:22:25;29.90;79.40
18753;DHT22;9505;50.882;5.350;2023-06-24T11:24:51;30.00;78.90
18753;DHT22;9505;50.882;5.350;2023-06-24T11:27:23;29.60;80.90
18753;DHT22;9505;50.882;5.350;2023-06-24T11:29:51;29.00;80.50
18753;DHT22;9505;50.882;5.350;2023-06-24T11:32:17;29.10;79.10
18753;DHT22;9505;50.882;5.350;2023-06-24T11:34:42;29.30;78.70
18753;DHT22;9505;50.882;5.350;2023-06-24T11:37:18;29.50;76.10
18753;DHT22;9505;50.882;5.350;2023-06-24T11:39:44;29.60;76.00
18753;DHT22;9505;50.882;5.350;2023-06-24T11:42:11;29.80;80.00
18753;DHT22;9505;50.882;5.350;2023-06-24T11:44:45;30.10;82.30
18753;DHT22;9505;50.882;5.350;2023-06-24T11:47:11;30.10;81.70
18753;DHT22;9505;50.882;5.350;2023-06-24T11:49:51;30.20;75.20
18753;DHT22;9505;50.882;5.350;2023-06-24T11:52:43;30.10;77.10
18753;DHT22;9505;50.882;5.350;2023-06-24T11:55:27;29.80;74.20
18753;DHT22;9505;50.882;5.350;2023-06-24T11:58:03;29.20;73.10
18753;DHT22;9505;50.882;5.350;2023-06-24T12:00:38;28.90;71.50
18753;DHT22;9505;50.882;5.350;2023-06-24T12:03:07;29.00;74.20
18753;DHT22;9505;50.882;5.350;2023-06-24T12:05:35;28.60;73.50
18753;DHT22;9505;50.882;5.350;2023-06-24T12:08:09;28.30;76.90
18753;DHT22;9505;50.882;5.350;2023-06-24T12:10:36;29.10;77.30
18753;DHT22;9505;50.882;5.350;2023-06-24T12:13:03;29.70;74.10
18753;DHT22;9505;50.882;5.350;2023-06-24T12:15:31;29.70;67.50
18753;DHT22;9505;50.882;5.350;2023-06-24T12:17:57;29.80;67.40
18753;DHT22;9505;50.882;5.350;2023-06-24T12:20:25;29.80;64.30
18753;DHT22;9505;50.882;5.350;2023-06-24T12:22:50;30.30;66.80
18753;DHT22;9505;50.882;5.350;2023-06-24T12:25:16;29.80;73.30
18753;DHT22;9505;50.882;5.350;2023-06-24T12:27:43;30.10;71.90
18753;DHT22;9505;50.882;5.350;2023-06-24T12:30:09;29.80;73.40
18753;DHT22;9505;50.882;5.350;2023-06-24T12:32:36;29.50;70.90
18753;DHT22;9505;50.882;5.350;2023-06-24T12:35:02;29.60;70.40
18753;DHT22;9505;50.882;5.350;2023-06-24T12:37:33;30.00;69.90
18753;DHT22;9505;50.882;5.350;2023-06-24T12:39:59;30.40;73.50
18753;DHT22;9505;50.882;5.350;2023-06-24T12:42:26;30.70;73.00
18753;DHT22;9505;50.882;5.350;2023-06-24T12:44:52;30.80;70.90
18753;DHT22;9505;50.882;5.350;2023-06-24T12:47:18;31.00;70.50
18753;DHT22;9505;50.882;5.350;2023-06-24T12:49:44;31.10;73.20
18753;DHT22;9505;50.882;5.350;2023-06-24T12:52:09;30.90;66.70
18753;DHT22;9505;50.882;5.350;2023-06-24T12:54:35;30.50;67.40
18753;DHT22;9505;50.882;5.350;2023-06-24T12:57:01;30.40;67.10
18753;DHT22;9505;50.882;5.350;2023-06-24T12:59:27;30.40;67.70
18753;DHT22;9505;50.882;5.350;2023-06-24T13:01:53;30.40;68.30
18753;DHT22;9505;50.882;5.350;2023-06-24T13:04:18;30.60;69.00
18753;DHT22;9505;50.882;5.350;2023-06-24T13:06:46;30.70;69.00
18753;DHT22;9505;50.882;5.350;2023-06-24T13:09:11;30.80;70.60
18753;DHT22;9505;50.882;5.350;2023-06-24T13:11:37;30.90;71.00
18753;DHT22;9505;50.882;5.350;2023-06-24T13:14:03;30.70;70.60
18753;DHT22;9505;50.882;5.350;2023-06-24T13:16:28;30.70;72.80
18753;DHT22;9505;50.882;5.350;2023-06-24T13:18:54;30.40;72.90
18753;DHT22;9505;50.882;5.350;2023-06-24T13:21:20;30.90;72.90
18753;DHT22;9505;50.882;5.350;2023-06-24T13:23:46;31.20;70.70
18753;DHT22;9505;50.882;5.350;2023-06-24T13:26:12;31.40;73.50
18753;DHT22;9505;50.882;5.350;2023-06-24T13:28:38;31.40;69.20
18753;DHT22;9505;50.882;5.350;2023-06-24T13:31:03;31.10;71.00
18753;DHT22;9505;50.882;5.350;2023-06-24T13:33:29;30.90;72.60
18753;DHT22;9505;50.882;5.350;2023-06-24T13:35:55;31.30;69.70
18753;DHT22;9505;50.882;5.350;2023-06-24T13:38:21;31.90;67.80
18753;DHT22;9505;50.882;5.350;2023-06-24T13:40:47;32.50;68.90
18753;DHT22;9505;50.882;5.350;2023-06-24T13:43:13;32.50;67.90
18753;DHT22;9505;50.882;5.350;2023-06-24T13:45:38;32.30;70.80
18753;DHT22;9505;50.882;5.350;2023-06-24T13:48:04;32.40;68.00
18753;DHT22;9505;50.882;5.350;2023-06-24T13:50:30;32.70;69.70
18753;DHT22;9505;50.882;5.350;2023-06-24T13:52:55;33.10;69.10
18753;DHT22;9505;50.882;5.350;2023-06-24T13:55:21;33.10;69.10
18753;DHT22;9505;50.882;5.350;2023-06-24T13:57:47;32.60;66.60
18753;DHT22;9505;50.882;5.350;2023-06-24T14:00:13;32.70;67.00
18753;DHT22;9505;50.882;5.350;2023-06-24T14:02:40;32.60;67.00
18753;DHT22;9505;50.882;5.350;2023-06-24T14:05:06;32.90;67.80
18753;DHT22;9505;50.882;5.350;2023-06-24T14:07:32;33.50;68.00
18753;DHT22;9505;50.882;5.350;2023-06-24T14:09:57;33.60;66.60
18753;DHT22;9505;50.882;5.350;2023-06-24T14:12:23;33.80;65.20
18753;DHT22;9505;50.882;5.350;2023-06-24T14:14:49;34.10;66.40
18753;DHT22;9505;50.882;5.350;2023-06-24T14:17:14;34.80;68.30
18753;DHT22;9505;50.882;5.350;2023-06-24T14:19:40;35.30;65.10
18753;DHT22;9505;50.882;5.350;2023-06-24T14:22:06;35.20;63.60
18753;DHT22;9505;50.882;5.350;2023-06-24T14:24:33;34.80;62.50
18753;DHT22;9505;50.882;5.350;2023-06-24T14:26:58;34.70;62.30
18753;DHT22;9505;50.882;5.350;2023-06-24T14:29:24;35.20;63.00
18753;DHT22;9505;50.882;5.350;2023-06-24T14:31:51;35.50;63.30
18753;DHT22;9505;50.882;5.350;2023-06-24T14:34:17;35.70;62.30
18753;DHT22;9505;50.882;5.350;2023-06-24T14:36:43;35.30;60.70
18753;DHT22;9505;50.882;5.350;2023-06-24T14:39:08;35.00;61.40
18753;DHT22;9505;50.882;5.350;2023-06-24T14:41:34;35.40;61.40
18753;DHT22;9505;50.882;5.350;2023-06-24T14:44:00;35.20;59.80
18753;DHT22;9505;50.882;5.350;2023-06-24T14:46:25;35.30;60.50
18753;DHT22;9505;50.882;5.350;2023-06-24T14:48:51;34.50;61.30
18753;DHT22;9505;50.882;5.350;2023-06-24T14:51:16;35.00;62.30
18753;DHT22;9505;50.882;5.350;2023-06-24T14:53:42;35.30;63.00
18753;DHT22;9505;50.882;5.350;2023-06-24T14:56:07;35.30;60.50
18753;DHT22;9505;50.882;5.350;2023-06-24T14:58:33;34.60;60.00
18753;DHT22;9505;50.882;5.350;2023-06-24T15:00:59;34.50;59.70
18753;DHT22;9505;50.882;5.350;2023-06-24T15:03:25;34.80;60.70
18753;DHT22;9505;50.882;5.350;2023-06-24T15:05:50;35.30;61.50
18753;DHT22;9505;50.882;5.350;2023-06-24T15:08:16;35.80;60.50
18753;DHT22;9505;50.882;5.350;2023-06-24T15:10:41;36.20;59.10
18753;DHT22;9505;50.882;5.350;2023-06-24T15:13:07;36.10;60.30
18753;DHT22;9505;50.882;5.350;2023-06-24T15:15:33;36.10;59.20
18753;DHT22;9505;50.882;5.350;2023-06-24T15:17:58;35.20;58.90
18753;DHT22;9505;50.882;5.350;2023-06-24T15:20:25;35.40;58.30
18753;DHT22;9505;50.882;5.350;2023-06-24T15:22:51;35.30;59.20
18753;DHT22;9505;50.882;5.350;2023-06-24T15:25:16;35.40;58.80
18753;DHT22;9505;50.882;5.350;2023-06-24T15:27:42;34.70;59.50
18753;DHT22;9505;50.882;5.350;2023-06-24T15:30:08;33.80;59.50
18753;DHT22;9505;50.882;5.350;2023-06-24T15:32:33;33.50;59.20
18753;DHT22;9505;50.882;5.350;2023-06-24T15:35:02;34.10;60.60
18753;DHT22;9505;50.882;5.350;2023-06-24T15:37:28;34.70;61.20
18753;DHT22;9505;50.882;5.350;2023-06-24T15:39:55;35.00;59.90
18753;DHT22;9505;50.882;5.350;2023-06-24T15:42:20;34.20;59.10
18753;DHT22;9505;50.882;5.350;2023-06-24T15:44:46;34.00;59.20
18753;DHT22;9505;50.882;5.350;2023-06-24T15:47:12;34.20;58.20
18753;DHT22;9505;50.882;5.350;2023-06-24T15:49:37;34.50;58.70
18753;DHT22;9505;50.882;5.350;2023-06-24T15:52:03;33.80;57.10
18753;DHT22;9505;50.882;5.350;2023-06-24T15:54:29;34.00;57.50
18753;DHT22;9505;50.882;5.350;2023-06-24T15:56:54;34.20;56.50
18753;DHT22;9505;50.882;5.350;2023-06-24T15:59:20;34.10;56.90
18753;DHT22;9505;50.882;5.350;2023-06-24T16:01:46;33.80;57.40
18753;DHT22;9505;50.882;5.350;2023-06-24T16:04:11;34.30;57.80